Time;durP1;ratioP1;P1;durP2;ratioP2;P2;SDS_P1;SDS_P2;PMS_P1;PMS_P2;Temp;Humidity;BMP_temperature;BMP_pressure;BME280_temperature;BME280_humidity;BME280_pressure;Samples;Min_cycle;Max_cycle;Signal;HPM_P1;HPM_P2
2023/05/05 00:00:07;;;;;;;337.40;144.86;;;;;;;13.82;100.00;99903.56;2494649;27;20259;-79
2023/05/05 00:00:20;;;;;;;348.70;152.48;;;;;;;13.82;100.00;99892.19;350937;28;1178;-79
2023/05/05 00:00:30;;;;;;;349.00;156.73;;;;;;;13.82;100.00;99900.06;347456;28;1280;-79
2023/05/05 00:00:41;;;;;;;347.98;157.88;;;;;;;13.81;100.00;99893.09;347479;28;1224;-79
2023/05/05 00:00:52;;;;;;;348.90;157.57;;;;;;;13.83;100.00;99899.16;347472;28;1530;-79
2023/05/05 00:01:02;;;;;;;351.27;158.60;;;;;;;13.82;100.00;99905.34;346112;28;1331;-79
2023/05/05 00:01:12;;;;;;;353.80;158.93;;;;;;;13.74;100.00;99887.28;348998;28;848;-79
2023/05/05 00:01:23;;;;;;;355.07;158.27;;;;;;;13.74;100.00;99897.81;348347;28;1224;-78
2023/05/05 00:01:33;;;;;;;357.30;159.73;;;;;;;13.83;100.00;99904.41;350267;28;784;-78
2023/05/05 00:01:44;;;;;;;356.10;159.05;;;;;;;13.77;100.00;99896.81;349262;28;905;-78
2023/05/05 00:01:54;;;;;;;354.83;158.63;;;;;;;13.78;100.00;99899.38;348813;28;1249;-78
2023/05/05 00:02:04;;;;;;;352.02;156.45;;;;;;;13.78;100.00;99895.88;351215;28;1213;-78
2023/05/05 00:02:15;;;;;;;351.13;156.33;;;;;;;13.79;100.00;99894.97;350937;28;865;-78
2023/05/05 00:02:25;;;;;;;351.00;158.60;;;;;;;13.77;100.00;99894.19;350400;28;768;-78
2023/05/05 00:02:36;;;;;;;351.80;158.57;;;;;;;13.78;100.00;99890.63;348916;28;1214;-78
2023/05/05 00:02:47;;;;;;;352.60;158.30;;;;;;;13.78;100.00;99901.16;348783;28;1224;-78
2023/05/05 00:02:57;;;;;;;355.02;159.15;;;;;;;13.71;100.00;99882.19;348825;28;1335;-79
2023/05/05 00:03:08;;;;;;;355.40;160.20;;;;;;;13.75;100.00;99894.25;347352;28;1378;-78
2023/05/05 00:03:21;;;;;;;358.95;162.18;;;;;;;13.80;100.00;99899.28;346251;28;1381;-78
2023/05/05 00:03:32;;;;;;;358.50;160.23;;;;;;;13.74;100.00;99889.06;348831;28;1405;-78
2023/05/05 00:03:42;;;;;;;357.02;159.13;;;;;;;13.75;100.00;99890.78;349488;28;1434;-78
2023/05/05 00:03:53;;;;;;;356.93;158.27;;;;;;;13.77;100.00;99892.41;348692;28;1183;-78
2023/05/05 00:04:03;;;;;;;354.23;157.65;;;;;;;13.76;100.00;99892.47;346881;28;1119;-78
2023/05/05 00:04:14;;;;;;;353.30;158.40;;;;;;;13.80;100.00;99899.28;346091;28;878;-78
2023/05/05 00:04:24;;;;;;;353.73;160.65;;;;;;;13.72;100.00;99889.16;344881;28;1678;-78
2023/05/05 00:04:35;;;;;;;355.07;161.10;;;;;;;13.72;100.00;99883.03;340803;28;1050;-78
2023/05/05 00:04:45;;;;;;;357.92;161.02;;;;;;;13.78;100.00;99899.38;343786;28;1234;-78
2023/05/05 00:04:55;;;;;;;361.17;161.43;;;;;;;13.76;100.00;99895.09;344855;28;871;-78
2023/05/05 00:05:06;;;;;;;361.90;162.10;;;;;;;13.74;100.00;99886.44;345934;28;1378;-79
2023/05/05 00:05:17;;;;;;;357.83;159.75;;;;;;;13.78;100.00;99895.88;346099;28;1366;-79
2023/05/05 00:05:27;;;;;;;355.70;159.03;;;;;;;13.80;100.00;99894.03;345881;28;1181;-79
2023/05/05 00:05:37;;;;;;;354.58;158.57;;;;;;;13.79;100.00;99892.34;346112;28;1220;-79
2023/05/05 00:05:48;;;;;;;357.27;161.33;;;;;;;13.76;100.00;99887.22;345957;28;1184;-79
2023/05/05 00:05:59;;;;;;;355.27;160.95;;;;;;;13.78;100.00;99895.88;345019;28;1361;-79
2023/05/05 00:06:09;;;;;;;358.27;161.50;;;;;;;13.79;100.00;99898.44;346066;28;1335;-79
2023/05/05 00:06:19;;;;;;;357.30;160.32;;;;;;;13.77;100.00;99889.78;345490;28;1282;-79
2023/05/05 00:06:30;;;;;;;357.00;161.37;;;;;;;13.76;100.00;99895.09;342497;28;1254;-79
2023/05/05 00:06:41;;;;;;;353.08;160.48;;;;;;;13.76;100.00;99895.09;345411;28;1237;-79
2023/05/05 00:06:51;;;;;;;355.23;162.20;;;;;;;13.76;100.00;99897.75;343564;28;873;-79
2023/05/05 00:07:02;;;;;;;357.83;160.02;;;;;;;13.74;100.00;99895.19;338906;29;1257;-79
2023/05/05 00:07:12;;;;;;;357.13;159.83;;;;;;;13.75;100.00;99896.03;340515;29;1353;-79
2023/05/05 00:07:22;;;;;;;355.95;158.63;;;;;;;13.73;100.00;99890.00;339434;29;1330;-79
2023/05/05 00:07:33;;;;;;;355.37;158.33;;;;;;;13.70;100.00;99887.53;342930;28;968;-79
2023/05/05 00:07:43;;;;;;;355.80;157.18;;;;;;;13.74;100.00;99895.19;340560;28;1257;-79
2023/05/05 00:07:54;;;;;;;356.90;158.30;;;;;;;13.75;100.00;99890.78;341065;28;1215;-79
2023/05/05 00:08:04;;;;;;;355.38;158.98;;;;;;;13.74;100.00;99895.19;342006;28;1354;-79
2023/05/05 00:08:15;;;;;;;357.93;161.33;;;;;;;13.73;100.00;99893.47;340807;28;1337;-79
2023/05/05 00:08:25;;;;;;;356.23;161.10;;;;;;;13.74;100.00;99894.34;342155;28;832;-79
2023/05/05 00:08:35;;;;;;;356.30;161.03;;;;;;;13.72;100.00;99888.28;339306;28;1369;-79
2023/05/05 00:08:46;;;;;;;352.97;160.20;;;;;;;13.70;100.00;99892.78;336460;28;1708;-79
2023/05/05 00:08:56;;;;;;;352.35;158.82;;;;;;;13.74;100.00;99897.81;338141;28;1927;-79
2023/05/05 00:09:07;;;;;;;356.67;158.87;;;;;;;13.71;100.00;99884.81;344756;28;1428;-79
2023/05/05 00:09:17;;;;;;;359.33;159.25;;;;;;;13.74;100.00;99895.19;339408;29;1578;-79
2023/05/05 00:09:28;;;;;;;359.67;159.30;;;;;;;13.72;100.00;99890.94;339224;29;1229;-79
2023/05/05 00:09:38;;;;;;;353.88;157.30;;;;;;;13.73;100.00;99896.13;339510;29;865;-79
2023/05/05 00:09:49;;;;;;;351.67;157.43;;;;;;;13.74;100.00;99899.59;340332;28;877;-79
2023/05/05 00:10:00;;;;;;;352.33;157.33;;;;;;;13.71;100.00;99894.47;335508;29;1465;-79
2023/05/05 00:10:10;;;;;;;355.33;159.15;;;;;;;13.63;100.00;99890.44;331942;29;1433;-80
2023/05/05 00:10:21;;;;;;;358.57;160.17;;;;;;;13.65;100.00;99883.34;336363;29;1813;-79
2023/05/05 00:10:31;;;;;;;357.33;160.73;;;;;;;13.67;100.00;99893.78;335118;29;1809;-79
2023/05/05 00:10:44;;;;;;;355.37;160.07;;;;;;;13.68;100.00;99892.84;331752;29;1807;-79
2023/05/05 00:10:56;;;;;;;354.65;159.63;;;;;;;13.67;100.00;99890.28;331777;29;1381;-79
2023/05/05 00:11:06;;;;;;;353.13;156.90;;;;;;;13.68;100.00;99892.00;329059;29;1372;-79
2023/05/05 00:11:17;;;;;;;349.80;155.63;;;;;;;13.64;100.00;99884.25;331314;29;1739;-79
2023/05/05 00:11:27;;;;;;;348.53;155.23;;;;;;;13.69;100.00;99896.34;327142;30;1454;-79
2023/05/05 00:11:37;;;;;;;349.20;156.50;;;;;;;13.68;100.00;99892.00;325669;30;1422;-79
2023/05/05 00:11:48;;;;;;;351.90;158.80;;;;;;;13.61;100.00;99884.41;329237;29;1495;-79
2023/05/05 00:11:58;;;;;;;351.87;158.83;;;;;;;13.65;100.00;99896.47;326471;30;1667;-79
2023/05/05 00:12:09;;;;;;;358.17;161.77;;;;;;;13.63;100.00;99886.97;323921;30;1252;-79
2023/05/05 00:12:19;;;;;;;361.50;163.23;;;;;;;13.70;100.00;99892.78;325051;30;2147;-79
2023/05/05 00:12:30;;;;;;;361.48;162.27;;;;;;;13.67;100.00;99892.94;320966;30;2272;-79
2023/05/05 00:12:40;;;;;;;360.43;163.07;;;;;;;13.71;100.00;99897.13;318597;30;1254;-79
2023/05/05 00:12:50;;;;;;;358.73;162.55;;;;;;;13.69;100.00;99891.06;315852;30;2293;-79
2023/05/05 00:13:01;;;;;;;358.90;164.33;;;;;;;13.68;100.00;99889.38;317019;30;2042;-79
2023/05/05 00:13:11;;;;;;;358.75;163.98;;;;;;;13.69;100.00;99891.94;318438;30;2469;-79
2023/05/05 00:13:22;;;;;;;357.70;164.97;;;;;;;13.70;100.00;99892.78;318883;31;1260;-79
2023/05/05 00:13:32;;;;;;;355.02;161.48;;;;;;;13.67;100.00;99885.88;320181;30;1892;-79
2023/05/05 00:13:43;;;;;;;353.20;159.23;;;;;;;13.69;100.00;99888.44;321872;30;1354;-79
2023/05/05 00:13:53;;;;;;;356.55;159.40;;;;;;;13.63;100.00;99877.28;322221;30;1237;-79
2023/05/05 00:14:04;;;;;;;360.67;162.20;;;;;;;13.67;100.00;99892.94;322095;30;1862;-79
2023/05/05 00:14:14;;;;;;;362.10;163.45;;;;;;;13.70;100.00;99896.25;318470;30;2234;-79
2023/05/05 00:14:24;;;;;;;360.20;161.63;;;;;;;13.67;100.00;99888.53;315838;31;1130;-79
2023/05/05 00:14:35;;;;;;;360.92;160.77;;;;;;;13.72;100.00;99890.94;319811;30;2918;-79
2023/05/05 00:14:45;;;;;;;363.27;163.20;;;;;;;13.69;100.00;99885.81;315486;31;2951;-79
2023/05/05 00:14:55;;;;;;;364.27;165.37;;;;;;;13.72;100.00;99893.56;308503;31;1458;-79
2023/05/05 00:15:06;;;;;;;359.95;163.35;;;;;;;13.70;100.00;99885.75;311779;31;1243;-79
2023/05/05 00:15:17;;;;;;;354.65;160.50;;;;;;;13.65;100.00;99880.72;313327;31;2807;-79
2023/05/05 00:15:28;;;;;;;354.00;160.80;;;;;;;13.70;100.00;99892.78;309274;31;2964;-79
2023/05/05 00:15:40;;;;;;;353.93;161.23;;;;;;;13.71;100.00;99891.84;309740;31;1132;-79
2023/05/05 00:15:52;;;;;;;355.08;159.45;;;;;;;13.70;100.00;99895.41;308244;32;2659;-79
2023/05/05 00:16:02;;;;;;;358.98;161.55;;;;;;;13.71;100.00;99897.97;308379;31;2223;-79
2023/05/05 00:16:13;;;;;;;359.05;161.18;;;;;;;13.70;100.00;99890.16;303828;32;2735;-79
2023/05/05 00:16:23;;;;;;;359.07;161.93;;;;;;;13.72;100.00;99896.19;300022;32;1222;-79
2023/05/05 00:16:34;;;;;;;355.63;159.13;;;;;;;13.71;100.00;99890.06;306332;32;3469;-79
2023/05/05 00:16:44;;;;;;;357.27;162.83;;;;;;;13.70;100.00;99885.75;303519;32;4766;-79
2023/05/05 00:16:54;;;;;;;355.67;160.40;;;;;;;13.72;100.00;99896.19;301202;32;952;-79
2023/05/05 00:17:05;;;;;;;358.50;163.27;;;;;;;13.67;100.00;99882.41;300714;32;4996;-79
2023/05/05 00:17:15;;;;;;;358.50;162.23;;;;;;;13.72;100.00;99890.94;298812;32;5373;-79
2023/05/05 00:17:26;;;;;;;362.03;165.67;;;;;;;13.69;100.00;99885.81;297545;32;3777;-81
2023/05/05 00:17:36;;;;;;;357.13;160.35;;;;;;;13.70;100.00;99885.75;303316;32;1237;-81
2023/05/05 00:17:47;;;;;;;355.00;158.43;;;;;;;13.58;100.00;99875.81;300772;32;4038;-81
2023/05/05 00:17:57;;;;;;;348.45;155.80;;;;;;;13.65;100.00;99887.75;299973;32;3505;-78
2023/05/05 00:18:08;;;;;;;347.43;158.33;;;;;;;13.64;100.00;99884.25;301649;32;1070;-78
2023/05/05 00:18:19;;;;;;;352.17;161.35;;;;;;;13.65;100.00;99890.38;295208;33;3755;-78
2023/05/05 00:18:30;;;;;;;355.88;163.00;;;;;;;13.62;100.00;99880.84;293258;33;3730;-78
2023/05/05 00:18:40;;;;;;;357.90;165.18;;;;;;;13.64;100.00;99883.41;294397;33;941;-78
2023/05/05 00:18:51;;;;;;;354.60;162.93;;;;;;;13.65;100.00;99880.72;293904;33;5406;-78
2023/05/05 00:19:01;;;;;;;354.30;161.38;;;;;;;13.67;100.00;99890.28;294905;33;6939;-78
2023/05/05 00:19:11;;;;;;;357.27;162.07;;;;;;;13.67;100.00;99887.66;292461;33;6649;-79
2023/05/05 00:19:22;;;;;;;358.13;163.18;;;;;;;13.67;100.00;99885.03;290119;34;1253;-80
2023/05/05 00:19:32;;;;;;;357.27;162.83;;;;;;;13.69;100.00;99891.06;288348;33;8103;-78
2023/05/05 00:19:43;;;;;;;356.93;161.83;;;;;;;13.68;100.00;99886.75;286703;33;6646;-78
2023/05/05 00:19:53;;;;;;;357.60;161.13;;;;;;;13.65;100.00;99878.06;288336;34;809;-78
2023/05/05 00:20:04;;;;;;;359.33;163.00;;;;;;;13.67;100.00;99883.25;285916;34;5718;-78
2023/05/05 00:20:14;;;;;;;358.15;163.02;;;;;;;13.66;100.00;99881.56;283477;34;5267;-78
2023/05/05 00:20:25;;;;;;;355.27;161.73;;;;;;;13.69;100.00;99884.03;281551;35;901;-79
2023/05/05 00:20:36;;;;;;;354.00;161.30;;;;;;;13.71;100.00;99881.34;276823;35;4549;-79
2023/05/05 00:20:47;;;;;;;353.20;162.43;;;;;;;13.70;100.00;99882.25;277729;35;6492;-78
2023/05/05 00:20:57;;;;;;;354.88;164.20;;;;;;;13.67;100.00;99871.88;277376;35;8153;-78
2023/05/05 00:21:07;;;;;;;357.30;165.27;;;;;;;13.68;100.00;99884.13;275435;35;1139;-78
2023/05/05 00:21:20;;;;;;;359.88;164.02;;;;;;;13.67;100.00;99883.25;273784;35;9818;-79
2023/05/05 00:23:03;;;;;;;334.71;144.82;;;;;;;13.70;100.00;99882.25;2497792;27;20478;-79
2023/05/05 00:23:17;;;;;;;347.03;154.27;;;;;;;13.71;100.00;99882.19;351576;28;1513;-80
2023/05/05 00:23:28;;;;;;;349.52;156.95;;;;;;;13.71;100.00;99883.97;350071;28;1253;-79
2023/05/05 00:23:38;;;;;;;349.60;156.57;;;;;;;13.64;100.00;99868.47;347481;28;1400;-79
2023/05/05 00:23:49;;;;;;;352.90;158.50;;;;;;;13.72;100.00;99885.66;347617;28;1526;-79
2023/05/05 00:23:59;;;;;;;352.20;157.03;;;;;;;13.71;100.00;99878.69;349627;28;1308;-80
2023/05/05 00:24:10;;;;;;;353.57;157.90;;;;;;;13.72;100.00;99880.41;348751;28;1247;-78
2023/05/05 00:24:20;;;;;;;353.88;158.60;;;;;;;13.75;100.00;99888.16;346108;28;1252;-78
2023/05/05 00:24:31;;;;;;;353.90;159.13;;;;;;;13.74;100.00;99884.66;347167;28;1230;-78
2023/05/05 00:24:41;;;;;;;351.40;157.02;;;;;;;13.73;100.00;99877.69;347571;28;1291;-78
2023/05/05 00:24:52;;;;;;;348.97;154.43;;;;;;;13.73;100.00;99879.47;346190;28;879;-78
2023/05/05 00:25:03;;;;;;;349.23;154.75;;;;;;;13.74;100.00;99883.81;346159;28;875;-78
2023/05/05 00:25:14;;;;;;;346.75;153.93;;;;;;;13.74;100.00;99875.91;346179;28;824;-78
2023/05/05 00:25:24;;;;;;;347.48;157.02;;;;;;;13.74;100.00;99884.66;345927;28;1224;-78
2023/05/05 00:25:35;;;;;;;346.67;156.30;;;;;;;13.74;100.00;99873.28;343592;28;1218;-80
2023/05/05 00:25:45;;;;;;;349.10;158.23;;;;;;;13.74;100.00;99883.81;346047;28;1407;-80
2023/05/05 00:25:56;;;;;;;349.77;157.32;;;;;;;13.69;100.00;99875.28;344771;28;1285;-80
2023/05/05 00:26:06;;;;;;;352.47;157.77;;;;;;;13.70;100.00;99882.25;345681;28;1293;-80
2023/05/05 00:26:16;;;;;;;354.00;157.10;;;;;;;13.73;100.00;99884.75;347621;28;1355;-80
2023/05/05 00:26:27;;;;;;;355.80;157.15;;;;;;;13.68;100.00;99876.22;346994;28;1105;-80
2023/05/05 00:26:37;;;;;;;354.57;157.63;;;;;;;13.69;100.00;99872.66;346067;28;1284;-80
2023/05/05 00:26:48;;;;;;;354.52;158.45;;;;;;;13.74;100.00;99876.78;346185;28;1239;-79
2023/05/05 00:26:58;;;;;;;356.80;161.70;;;;;;;13.68;100.00;99868.31;348771;28;1233;-80
2023/05/05 00:27:09;;;;;;;356.90;161.13;;;;;;;13.74;100.00;99878.56;349009;28;932;-80
2023/05/05 00:27:19;;;;;;;356.40;160.27;;;;;;;13.75;100.00;99881.09;346681;28;1192;-79
2023/05/05 00:27:30;;;;;;;352.77;158.35;;;;;;;13.74;100.00;99883.81;351116;28;1317;-80
2023/05/05 00:27:40;;;;;;;355.50;158.40;;;;;;;13.72;100.00;99876.00;350515;28;1145;-79
2023/05/05 00:27:51;;;;;;;355.88;157.38;;;;;;;13.76;100.00;99882.81;350342;28;1350;-79
2023/05/05 00:28:02;;;;;;;355.17;155.60;;;;;;;13.72;100.00;99872.50;347539;28;1291;-79
2023/05/05 00:28:15;;;;;;;354.33;158.00;;;;;;;13.72;100.00;99875.16;346089;28;1528;-79
2023/05/05 00:28:26;;;;;;;353.45;158.15;;;;;;;13.80;100.00;99880.88;347371;28;1446;-79
2023/05/05 00:28:36;;;;;;;351.33;157.18;;;;;;;13.80;100.00;99878.25;347553;28;1339;-79
2023/05/05 00:28:47;;;;;;;349.17;155.53;;;;;;;13.77;100.00;99879.25;346197;28;1143;-79
2023/05/05 00:28:57;;;;;;;351.52;157.75;;;;;;;13.78;100.00;99869.59;346146;28;1318;-79
2023/05/05 00:29:08;;;;;;;354.10;156.73;;;;;;;13.79;100.00;99885.28;347521;28;1325;-79
2023/05/05 00:29:18;;;;;;;351.38;155.20;;;;;;;13.78;100.00;99878.31;346816;28;1256;-79
2023/05/05 00:29:28;;;;;;;350.80;156.33;;;;;;;13.80;100.00;99880.88;345827;28;1238;-79
2023/05/05 00:29:39;;;;;;;351.85;160.15;;;;;;;13.77;100.00;99881.03;345387;28;1288;-79
2023/05/05 00:29:50;;;;;;;353.03;161.23;;;;;;;13.77;100.00;99881.88;347732;28;1180;-78
2023/05/05 00:30:00;;;;;;;350.58;156.05;;;;;;;13.78;100.00;99885.38;343159;28;1232;-79
2023/05/05 00:30:12;;;;;;;346.27;154.17;;;;;;;13.79;100.00;99879.19;343478;28;1394;-79
2023/05/05 00:30:23;;;;;;;348.85;151.50;;;;;;;13.78;100.00;99877.47;343445;28;982;-79
2023/05/05 00:30:33;;;;;;;350.33;152.65;;;;;;;13.77;100.00;99874.00;344594;28;1351;-79
2023/05/05 00:30:44;;;;;;;350.93;153.07;;;;;;;13.79;100.00;99880.03;344271;28;1243;-79
2023/05/05 00:30:54;;;;;;;350.55;156.38;;;;;;;13.79;100.00;99882.66;345096;28;918;-79
2023/05/05 00:31:05;;;;;;;350.23;156.70;;;;;;;13.80;100.00;99878.25;347615;28;1209;-79
2023/05/05 00:31:16;;;;;;;353.50;157.07;;;;;;;13.80;100.00;99873.00;345745;28;1426;-79
2023/05/05 00:31:27;;;;;;;350.20;154.00;;;;;;;13.81;100.00;99877.31;341784;28;1269;-79
2023/05/05 00:31:37;;;;;;;353.53;155.83;;;;;;;13.80;100.00;99880.88;341025;29;786;-79
2023/05/05 00:31:51;;;;;;;354.23;159.88;;;;;;;13.79;100.00;99877.41;335481;29;1206;-79
2023/05/05 00:32:01;;;;;;;355.98;160.30;;;;;;;13.73;100.00;99871.59;339035;29;2049;-79
2023/05/05 00:32:12;;;;;;;354.00;158.30;;;;;;;13.80;100.00;99880.88;337921;29;1210;-79
2023/05/05 00:32:22;;;;;;;355.70;158.57;;;;;;;13.80;100.00;99883.50;334161;29;1227;-79
2023/05/05 00:32:33;;;;;;;356.08;156.90;;;;;;;13.82;100.00;99873.75;334247;29;1256;-79
2023/05/05 00:32:43;;;;;;;356.07;157.37;;;;;;;13.79;100.00;99877.41;335607;29;1467;-79
2023/05/05 00:32:54;;;;;;;353.75;158.02;;;;;;;13.78;100.00;99873.06;335255;29;1433;-79
2023/05/05 00:33:04;;;;;;;352.38;158.52;;;;;;;13.75;100.00;99885.50;334084;29;1489;-79
2023/05/05 00:33:15;;;;;;;351.90;158.23;;;;;;;13.73;100.00;99882.09;337931;29;1140;-79
2023/05/05 00:33:26;;;;;;;352.35;156.82;;;;;;;13.72;100.00;99877.78;336660;29;1135;-79
2023/05/05 00:33:36;;;;;;;351.40;155.17;;;;;;;13.72;100.00;99875.16;336918;29;771;-79
2023/05/05 00:33:46;;;;;;;348.77;153.68;;;;;;;13.74;100.00;99874.13;337324;29;1816;-79
2023/05/05 00:33:57;;;;;;;349.50;156.47;;;;;;;13.73;100.00;99879.47;333703;29;2248;-79
2023/05/05 00:34:07;;;;;;;351.52;159.65;;;;;;;13.75;100.00;99885.50;336442;29;1333;-79
2023/05/05 00:34:18;;;;;;;353.47;160.20;;;;;;;13.73;100.00;99882.97;333216;29;1036;-79
2023/05/05 00:34:28;;;;;;;352.73;158.10;;;;;;;13.68;100.00;99870.97;334515;29;1206;-79
2023/05/05 00:34:38;;;;;;;352.87;157.03;;;;;;;13.72;100.00;99869.88;336417;29;1468;-79
2023/05/05 00:34:49;;;;;;;350.60;155.53;;;;;;;13.73;100.00;99877.69;331598;29;1230;-79
2023/05/05 00:34:59;;;;;;;349.58;154.30;;;;;;;13.75;100.00;99878.47;332262;29;2025;-79
2023/05/05 00:35:10;;;;;;;349.67;156.07;;;;;;;13.75;100.00;99875.84;333591;29;1949;-79
2023/05/05 00:35:20;;;;;;;352.90;158.40;;;;;;;13.73;100.00;99872.44;330522;29;1279;-79
2023/05/05 00:35:31;;;;;;;354.85;160.70;;;;;;;13.75;100.00;99875.84;327793;30;1508;-79
2023/05/05 00:35:41;;;;;;;356.33;161.63;;;;;;;13.78;100.00;99882.72;328505;29;1857;-79
2023/05/05 00:35:52;;;;;;;354.38;160.27;;;;;;;13.78;100.00;99880.09;325539;30;1254;-79
2023/05/05 00:36:02;;;;;;;354.80;162.03;;;;;;;13.77;100.00;99879.25;325146;30;2363;-79
2023/05/05 00:36:13;;;;;;;351.65;158.93;;;;;;;13.76;100.00;99881.97;324281;30;2370;-79
2023/05/05 00:36:24;;;;;;;356.77;159.93;;;;;;;13.77;100.00;99875.78;323239;30;1697;-79
2023/05/05 00:36:34;;;;;;;355.63;157.67;;;;;;;13.75;100.00;99875.84;324383;30;789;-79
2023/05/05 00:36:45;;;;;;;354.92;156.82;;;;;;;13.78;100.00;99880.09;327321;30;1584;-79
2023/05/05 00:36:55;;;;;;;351.60;156.07;;;;;;;13.77;100.00;99879.25;327485;30;2436;-79
2023/05/05 00:37:06;;;;;;;349.52;152.52;;;;;;;13.77;100.00;99875.78;320761;30;1272;-79
2023/05/05 00:37:16;;;;;;;348.93;151.53;;;;;;;13.74;100.00;99878.56;322923;30;2451;-79
2023/05/05 00:37:27;;;;;;;347.85;150.20;;;;;;;13.73;100.00;99877.69;321238;30;2426;-79
2023/05/05 00:37:37;;;;;;;351.53;154.00;;;;;;;13.76;100.00;99887.22;318676;31;830;-79
2023/05/05 00:37:48;;;;;;;353.55;156.13;;;;;;;13.73;100.00;99868.97;311253;31;823;-79
2023/05/05 00:37:58;;;;;;;359.30;159.00;;;;;;;13.76;100.00;99874.06;313172;31;2590;-79
2023/05/05 00:38:09;;;;;;;358.77;157.57;;;;;;;13.77;100.00;99879.25;312808;31;2833;-79
2023/05/05 00:38:19;;;;;;;362.03;159.97;;;;;;;13.72;100.00;99872.50;314007;31;1211;-79
2023/05/05 00:38:29;;;;;;;355.90;158.90;;;;;;;13.72;100.00;99876.00;313546;31;2745;-79
2023/05/05 00:38:40;;;;;;;354.00;158.20;;;;;;;13.74;100.00;99878.56;312733;31;1997;-79
2023/05/05 00:38:50;;;;;;;350.70;154.25;;;;;;;13.76;100.00;99884.59;310729;31;1303;-79
2023/05/05 00:39:01;;;;;;;352.73;156.33;;;;;;;13.75;100.00;99880.25;305390;32;2323;-79
2023/05/05 00:39:11;;;;;;;352.95;156.90;;;;;;;13.73;100.00;99876.84;305122;31;2737;-79
2023/05/05 00:39:22;;;;;;;353.33;157.67;;;;;;;13.75;100.00;99877.63;305734;32;1628;-79
2023/05/05 00:39:32;;;;;;;350.80;155.10;;;;;;;13.76;100.00;99881.97;308773;31;3178;-79
2023/05/05 00:39:43;;;;;;;350.47;153.57;;;;;;;13.74;100.00;99873.28;306174;32;3434;-79
2023/05/05 00:39:54;;;;;;;350.75;155.07;;;;;;;13.76;100.00;99882.81;304036;31;3144;-79
2023/05/05 00:40:05;;;;;;;352.42;156.20;;;;;;;13.71;100.00;99866.41;306412;32;904;-79
2023/05/05 00:40:17;;;;;;;353.45;157.10;;;;;;;13.76;100.00;99879.31;303758;32;3590;-79
2023/05/05 00:40:27;;;;;;;353.50;156.50;;;;;;;13.78;100.00;99882.72;302270;32;3243;-79
2023/05/05 00:40:38;;;;;;;353.80;156.07;;;;;;;13.76;100.00;99876.69;300724;32;3497;-78
2023/05/05 00:40:48;;;;;;;351.40;156.60;;;;;;;13.78;100.00;99885.38;302285;32;1217;-78
2023/05/05 00:40:59;;;;;;;350.60;155.20;;;;;;;13.75;100.00;99877.63;299909;32;2764;-78
2023/05/05 00:41:09;;;;;;;350.00;157.50;;;;;;;13.77;100.00;99878.41;296614;32;3166;-79
2023/05/05 00:41:19;;;;;;;349.77;156.00;;;;;;;13.71;100.00;99874.28;296061;33;1274;-79
2023/05/05 00:41:30;;;;;;;350.80;158.60;;;;;;;13.77;100.00;99883.66;294139;33;3742;-79
2023/05/05 00:41:41;;;;;;;352.33;158.27;;;;;;;13.76;100.00;99882.81;291841;33;4642;-79
2023/05/05 00:41:51;;;;;;;352.17;160.52;;;;;;;13.77;100.00;99884.50;292205;33;1388;-79
2023/05/05 00:42:02;;;;;;;353.38;160.50;;;;;;;13.76;100.00;99872.28;290595;33;5168;-79
2023/05/05 00:42:12;;;;;;;353.67;158.97;;;;;;;13.78;100.00;99874.84;288603;33;4819;-79
2023/05/05 00:42:23;;;;;;;354.05;157.77;;;;;;;13.78;100.00;99880.09;285330;34;4830;-79
2023/05/05 00:42:40;;;;;;;355.05;157.82;;;;;;;13.77;100.00;99874.00;284541;34;1279;-79
2023/05/05 00:42:50;;;;;;;353.48;158.27;;;;;;;13.78;100.00;99877.47;287322;34;1465;-79
2023/05/05 00:43:01;;;;;;;352.70;158.07;;;;;;;13.77;100.00;99873.13;287704;34;4334;-79
2023/05/05 00:43:12;;;;;;;354.08;159.55;;;;;;;13.78;100.00;99875.69;285993;34;3311;-79
2023/05/05 00:43:22;;;;;;;354.93;161.73;;;;;;;13.78;100.00;99877.47;280907;35;1323;-79
2023/05/05 00:43:33;;;;;;;351.08;160.30;;;;;;;13.78;100.00;99874.84;279929;35;1473;-79
2023/05/05 00:43:43;;;;;;;352.05;159.80;;;;;;;13.76;100.00;99879.31;279478;34;5464;-79
2023/05/05 00:43:54;;;;;;;357.60;161.93;;;;;;;13.77;100.00;99873.13;276557;35;6599;-79
2023/05/05 00:44:04;;;;;;;358.30;161.48;;;;;;;13.77;100.00;99881.03;274806;36;1237;-79
2023/05/05 00:44:14;;;;;;;356.57;159.00;;;;;;;13.78;100.00;99875.69;277093;35;8261;-78
2023/05/05 00:44:34;;;;;;;354.03;157.90;;;;;;;13.78;100.00;99872.22;275886;35;8159;-78
2023/05/05 00:44:45;;;;;;;355.75;156.90;;;;;;;13.79;100.00;99880.03;274133;35;5978;-81
2023/05/05 00:44:56;;;;;;;353.67;156.05;;;;;;;13.75;100.00;99872.38;270204;36;6014;-81
2023/05/05 00:45:07;;;;;;;352.80;158.27;;;;;;;13.78;100.00;99875.69;268867;36;1495;-81
2023/05/05 00:45:18;;;;;;;353.17;159.60;;;;;;;13.80;100.00;99880.88;265305;36;5970;-81
2023/05/05 00:45:29;;;;;;;351.94;159.38;;;;;;;13.81;100.00;99882.59;265212;36;5476;-81
2023/05/05 00:45:42;;;;;;;352.40;159.63;;;;;;;13.79;100.00;99871.28;266447;36;6329;-81
2023/05/05 00:47:31;;;;;;;336.02;143.11;;;;;;;13.81;100.00;99879.94;2484874;27;20485;-79
2023/05/05 00:47:44;;;;;;;346.60;151.53;;;;;;;13.81;100.00;99880.81;350161;28;1223;-79
2023/05/05 00:47:56;;;;;;;349.70;155.88;;;;;;;13.81;100.00;99879.94;347295;28;2118;-79
2023/05/05 00:48:06;;;;;;;351.90;156.10;;;;;;;13.78;100.00;99875.69;349375;28;1336;-78
2023/05/05 00:48:18;;;;;;;354.13;158.07;;;;;;;13.80;100.00;99879.09;344872;28;1218;-78
2023/05/05 00:48:29;;;;;;;354.73;156.32;;;;;;;13.79;100.00;99874.75;346680;28;1279;-78
2023/05/05 00:48:39;;;;;;;353.30;153.15;;;;;;;13.80;100.00;99878.25;348989;28;914;-78
2023/05/05 00:48:50;;;;;;;351.90;152.43;;;;;;;13.78;100.00;99874.84;348799;28;1173;-78
2023/05/05 00:49:00;;;;;;;352.40;156.25;;;;;;;13.78;100.00;99875.69;347538;28;1393;-78
2023/05/05 00:49:11;;;;;;;354.00;158.83;;;;;;;13.79;100.00;99887.06;346179;28;1216;-78
2023/05/05 00:49:21;;;;;;;351.40;158.32;;;;;;;13.78;100.00;99880.97;347528;28;1364;-79
2023/05/05 00:49:32;;;;;;;350.60;157.60;;;;;;;13.78;100.00;99874.84;348723;28;1366;-79
2023/05/05 00:49:42;;;;;;;351.48;157.57;;;;;;;13.76;100.00;99882.81;350038;28;1440;-78
2023/05/05 00:49:53;;;;;;;353.50;156.13;;;;;;;13.78;100.00;99882.72;347585;28;1204;-78
2023/05/05 00:50:05;;;;;;;352.00;154.13;;;;;;;13.78;100.00;99877.47;347900;28;1377;-78
2023/05/05 00:50:22;;;;;;;349.75;151.15;;;;;;;13.76;100.00;99874.91;346144;28;1347;-78
2023/05/05 00:50:32;;;;;;;350.92;153.50;;;;;;;13.76;100.00;99877.56;346043;28;1311;-78
2023/05/05 00:50:43;;;;;;;350.85;155.18;;;;;;;13.78;100.00;99880.09;344751;28;1164;-78
2023/05/05 00:50:54;;;;;;;353.80;157.23;;;;;;;13.77;100.00;99873.13;346294;28;1244;-78
2023/05/05 00:51:07;;;;;;;354.63;157.80;;;;;;;13.76;100.00;99876.69;346754;28;959;-79
2023/05/05 00:51:18;;;;;;;353.50;154.88;;;;;;;13.76;100.00;99876.69;341878;28;4710;-79
2023/05/05 00:51:28;;;;;;;352.30;154.52;;;;;;;13.74;100.00;99879.41;345836;28;1221;-79
2023/05/05 00:51:39;;;;;;;350.58;154.30;;;;;;;13.68;100.00;99868.31;344495;28;1223;-79
2023/05/05 00:51:49;;;;;;;354.50;158.20;;;;;;;13.75;100.00;99880.25;343805;28;1143;-79
2023/05/05 00:52:00;;;;;;;353.75;158.90;;;;;;;13.75;100.00;99878.47;338194;29;1070;-78